Time;durP1;ratioP1;P1;durP2;ratioP2;P2;SDS_P1;SDS_P2;PMS_P1;PMS_P2;Temp;Humidity;BMP_temperature;BMP_pressure;BME280_temperature;BME280_humidity;BME280_pressure;Samples;Min_cycle;Max_cycle;Signal;HPM_P1;HPM_P2
2023/06/25 00:00:44;;;;;;;;;18.00;17.75;;;;;;;;5024213;28;51970;-59
2023/06/25 00:03:09;;;;;;;;;7.67;7.33;;;;;;;;5027487;28;51285;-59
2023/06/25 00:05:34;;;;;;;;;7.00;7.00;;;;;;;;5029368;28;51689;-59
2023/06/25 00:08:00;;;;;;;;;11.00;10.33;;;;;;;;5031406;28;51048;-58
2023/06/25 00:10:25;;;;;;;;;9.33;9.33;;;;;;;;5018233;28;50973;-59
2023/06/25 00:12:50;;;;;;;;;10.67;9.00;;;;;;;;5028225;28;52932;-58
2023/06/25 00:15:15;;;;;;;;;8.00;7.33;;;;;;;;5020212;28;51049;-59
2023/06/25 00:17:41;;;;;;;;;8.67;8.00;;;;;;;;5029640;28;51484;-58
2023/06/25 00:20:07;;;;;;;;;7.00;7.00;;;;;;;;5027150;28;51846;-59
2023/06/25 00:22:33;;;;;;;;;10.00;10.00;;;;;;;;5029091;28;51146;-59
2023/06/25 00:24:58;;;;;;;;;8.00;8.00;;;;;;;;5022714;28;51274;-59
2023/06/25 00:27:23;;;;;;;;;6.00;6.00;;;;;;;;5031382;28;50959;-58
2023/06/25 00:29:48;;;;;;;;;8.00;7.00;;;;;;;;5026771;28;51582;-58
2023/06/25 00:32:17;;;;;;;;;7.00;7.00;;;;;;;;5021922;28;51175;-58
2023/06/25 00:34:42;;;;;;;;;6.00;5.67;;;;;;;;5023252;28;51116;-58
2023/06/25 00:37:16;;;;;;;;;8.00;7.00;;;;;;;;5022259;28;51653;-58
2023/06/25 00:39:41;;;;;;;;;6.67;6.67;;;;;;;;5027105;28;53011;-57
2023/06/25 00:42:09;;;;;;;;;7.00;7.00;;;;;;;;5029361;28;51151;-58
2023/06/25 00:44:40;;;;;;;;;7.00;7.00;;;;;;;;5019397;28;51086;-58
2023/06/25 00:47:05;;;;;;;;;6.67;6.00;;;;;;;;5016298;28;51058;-58
2023/06/25 00:49:33;;;;;;;;;9.33;9.00;;;;;;;;5032199;28;51049;-58
2023/06/25 00:52:00;;;;;;;;;8.00;6.00;;;;;;;;5029371;28;50924;-58
2023/06/25 00:54:25;;;;;;;;;10.33;9.33;;;;;;;;5021955;28;51200;-58
2023/06/25 00:56:50;;;;;;;;;6.00;6.00;;;;;;;;5013499;28;51206;-57
2023/06/25 00:59:16;;;;;;;;;7.00;6.33;;;;;;;;5023473;28;52566;-57
2023/06/25 01:01:44;;;;;;;;;5.33;5.33;;;;;;;;5031455;28;50923;-57
2023/06/25 01:04:19;;;;;;;;;6.00;5.00;;;;;;;;5025904;28;51167;-58
2023/06/25 01:06:47;;;;;;;;;7.00;7.00;;;;;;;;5027233;28;51264;-59
2023/06/25 01:09:14;;;;;;;;;7.00;6.00;;;;;;;;5031517;28;51743;-57
2023/06/25 01:11:39;;;;;;;;;5.00;5.00;;;;;;;;5023260;28;51179;-58
2023/06/25 01:14:04;;;;;;;;;5.67;5.67;;;;;;;;5028876;28;50914;-59
2023/06/25 01:16:30;;;;;;;;;6.00;5.33;;;;;;;;5032939;28;51206;-59
2023/06/25 01:18:58;;;;;;;;;6.00;5.33;;;;;;;;5032315;28;51647;-59
2023/06/25 01:21:26;;;;;;;;;6.00;6.00;;;;;;;;5023956;28;51189;-59
2023/06/25 01:23:52;;;;;;;;;5.33;5.33;;;;;;;;5029993;28;52648;-59
2023/06/25 01:26:17;;;;;;;;;7.00;7.00;;;;;;;;5024465;28;50979;-59
2023/06/25 01:28:43;;;;;;;;;6.33;6.00;;;;;;;;5030340;28;51637;-60
2023/06/25 01:31:08;;;;;;;;;9.33;7.67;;;;;;;;5028668;28;51066;-58
2023/06/25 01:33:33;;;;;;;;;4.00;4.00;;;;;;;;5031178;28;51316;-59
2023/06/25 01:35:59;;;;;;;;;10.00;9.00;;;;;;;;5031428;28;51000;-58
2023/06/25 01:38:24;;;;;;;;;5.00;5.00;;;;;;;;5030845;28;51106;-58
2023/06/25 01:40:49;;;;;;;;;7.33;6.00;;;;;;;;5030045;28;51123;-57
2023/06/25 01:43:14;;;;;;;;;7.00;6.00;;;;;;;;5025574;28;51193;-58
2023/06/25 01:45:40;;;;;;;;;5.67;5.67;;;;;;;;5027353;28;51359;-58
2023/06/25 01:48:05;;;;;;;;;7.33;7.00;;;;;;;;5017360;28;52039;-58
2023/06/25 01:50:31;;;;;;;;;9.00;8.67;;;;;;;;5031841;28;51065;-58
2023/06/25 01:52:56;;;;;;;;;8.00;8.00;;;;;;;;5031312;28;51104;-58
2023/06/25 01:55:21;;;;;;;;;10.33;9.00;;;;;;;;5032094;28;51057;-58
2023/06/25 01:57:46;;;;;;;;;11.00;11.00;;;;;;;;5030547;28;51017;-59
2023/06/25 02:00:12;;;;;;;;;10.33;10.33;;;;;;;;5028204;28;51111;-58
2023/06/25 02:02:37;;;;;;;;;11.67;11.67;;;;;;;;5029623;28;50961;-58
2023/06/25 02:05:02;;;;;;;;;10.33;10.33;;;;;;;;5025955;28;50828;-58
2023/06/25 02:07:28;;;;;;;;;10.00;9.67;;;;;;;;5024419;28;52245;-58
2023/06/25 02:09:53;;;;;;;;;10.33;10.00;;;;;;;;5020884;28;51128;-58
2023/06/25 02:12:18;;;;;;;;;9.00;8.67;;;;;;;;5022548;28;51616;-59
2023/06/25 02:14:44;;;;;;;;;10.00;9.00;;;;;;;;5014847;28;52627;-59
2023/06/25 02:17:09;;;;;;;;;12.00;11.33;;;;;;;;5012493;28;51740;-59
2023/06/25 02:19:34;;;;;;;;;14.67;14.00;;;;;;;;5018865;28;51157;-59
2023/06/25 02:21:59;;;;;;;;;11.33;11.33;;;;;;;;5030229;28;51109;-58
2023/06/25 02:24:24;;;;;;;;;13.00;12.00;;;;;;;;5029518;28;51120;-58
2023/06/25 02:26:49;;;;;;;;;8.67;8.33;;;;;;;;5030759;28;51598;-58
2023/06/25 02:29:15;;;;;;;;;10.00;10.00;;;;;;;;5025299;28;51180;-58
2023/06/25 02:31:40;;;;;;;;;12.67;11.00;;;;;;;;5019150;28;51229;-59
2023/06/25 02:34:05;;;;;;;;;31.00;29.50;;;;;;;;5030679;28;50929;-58
2023/06/25 02:36:31;;;;;;;;;12.00;11.33;;;;;;;;5024147;28;51305;-59
2023/06/25 02:38:56;;;;;;;;;11.33;10.00;;;;;;;;5020402;28;51764;-58
2023/06/25 02:41:21;;;;;;;;;15.00;13.00;;;;;;;;5018604;28;50927;-58
2023/06/25 02:43:46;;;;;;;;;14.00;12.33;;;;;;;;5031162;28;51413;-57
2023/06/25 02:46:11;;;;;;;;;12.00;12.00;;;;;;;;5014797;28;54202;-59
2023/06/25 02:48:37;;;;;;;;;11.67;11.00;;;;;;;;5021222;28;51121;-58
2023/06/25 02:51:03;;;;;;;;;12.50;12.50;;;;;;;;5031412;28;51233;-58
2023/06/25 02:53:28;;;;;;;;;13.00;12.25;;;;;;;;5029955;28;51455;-58
2023/06/25 02:55:53;;;;;;;;;12.00;11.67;;;;;;;;5016061;28;51707;-58
2023/06/25 02:58:18;;;;;;;;;13.67;12.00;;;;;;;;5029270;28;51170;-58
2023/06/25 03:00:43;;;;;;;;;15.25;14.50;;;;;;;;5021653;28;51172;-59
2023/06/25 03:03:08;;;;;;;;;10.00;10.00;;;;;;;;5020696;28;50961;-59
2023/06/25 03:05:35;;;;;;;;;12.33;11.33;;;;;;;;5015979;28;53431;-59
2023/06/25 03:08:00;;;;;;;;;12.00;12.00;;;;;;;;5026002;28;51401;-59
2023/06/25 03:10:27;;;;;;;;;20.00;19.50;;;;;;;;5023658;28;51351;-59
2023/06/25 03:12:52;;;;;;;;;13.50;12.75;;;;;;;;5011686;28;51078;-59
2023/06/25 03:15:17;;;;;;;;;16.25;16.25;;;;;;;;5029231;28;50983;-60
2023/06/25 03:17:43;;;;;;;;;25.25;25.25;;;;;;;;5021913;28;51115;-59
2023/06/25 03:20:08;;;;;;;;;5.67;4.67;;;;;;;;5028597;28;51081;-58
2023/06/25 03:22:33;;;;;;;;;8.00;7.33;;;;;;;;5031993;28;51015;-59
2023/06/25 03:24:59;;;;;;;;;14.00;13.00;;;;;;;;5033597;28;52376;-59
2023/06/25 03:27:24;;;;;;;;;12.67;12.33;;;;;;;;5028073;28;52048;-59
2023/06/25 03:29:49;;;;;;;;;11.33;11.33;;;;;;;;5029210;28;50979;-60
2023/06/25 03:32:14;;;;;;;;;20.00;18.00;;;;;;;;5014909;28;50997;-59
2023/06/25 03:34:39;;;;;;;;;9.33;8.67;;;;;;;;5023274;28;51886;-59
2023/06/25 03:37:05;;;;;;;;;24.50;23.25;;;;;;;;5029286;28;51110;-59
2023/06/25 03:39:30;;;;;;;;;15.75;15.50;;;;;;;;5020987;28;51012;-59
2023/06/25 03:41:55;;;;;;;;;6.67;6.67;;;;;;;;5023716;28;51222;-59
2023/06/25 03:44:20;;;;;;;;;8.00;7.67;;;;;;;;5034340;28;51003;-58
2023/06/25 03:46:45;;;;;;;;;6.00;6.00;;;;;;;;5028573;28;51075;-59
2023/06/25 03:49:11;;;;;;;;;4.33;4.00;;;;;;;;5033419;28;50993;-59
2023/06/25 03:51:36;;;;;;;;;5.33;5.33;;;;;;;;5020325;28;51075;-59
2023/06/25 03:54:01;;;;;;;;;7.00;6.00;;;;;;;;5033616;28;51032;-59
2023/06/25 03:56:26;;;;;;;;;7.00;7.00;;;;;;;;5031533;28;51116;-59
2023/06/25 03:58:52;;;;;;;;;3.00;2.00;;;;;;;;5022937;28;51143;-59
2023/06/25 04:01:17;;;;;;;;;5.00;5.00;;;;;;;;5026291;28;51232;-59
2023/06/25 04:03:42;;;;;;;;;4.00;4.00;;;;;;;;5029033;28;51958;-59
2023/06/25 04:06:07;;;;;;;;;6.00;6.00;;;;;;;;5016047;28;51169;-59
2023/06/25 04:08:32;;;;;;;;;7.33;6.33;;;;;;;;5023973;28;51059;-59
2023/06/25 04:10:58;;;;;;;;;6.00;6.00;;;;;;;;5030953;28;50855;-59
2023/06/25 04:13:23;;;;;;;;;8.00;6.33;;;;;;;;5014485;28;52993;-59
2023/06/25 04:15:48;;;;;;;;;8.00;7.00;;;;;;;;5016951;28;51118;-58
2023/06/25 04:18:13;;;;;;;;;7.00;6.00;;;;;;;;5031569;28;51038;-59
2023/06/25 04:20:38;;;;;;;;;8.00;7.00;;;;;;;;5029922;28;51467;-58
2023/06/25 04:23:04;;;;;;;;;6.33;5.33;;;;;;;;5020439;28;53869;-58
2023/06/25 04:25:30;;;;;;;;;7.67;7.67;;;;;;;;5032507;28;51037;-58
2023/06/25 04:27:55;;;;;;;;;6.67;6.00;;;;;;;;5031976;28;50932;-57
2023/06/25 04:30:21;;;;;;;;;8.00;7.00;;;;;;;;5020817;28;51265;-57
2023/06/25 04:32:49;;;;;;;;;7.67;7.67;;;;;;;;5028828;28;52734;-59
2023/06/25 04:35:14;;;;;;;;;6.67;6.00;;;;;;;;5013844;28;50989;-59
2023/06/25 04:37:39;;;;;;;;;6.67;5.67;;;;;;;;5023570;28;51038;-58
2023/06/25 04:40:05;;;;;;;;;7.00;7.00;;;;;;;;5034412;28;51132;-58
2023/06/25 04:42:30;;;;;;;;;7.00;7.00;;;;;;;;5028371;28;52867;-58
2023/06/25 04:44:56;;;;;;;;;7.33;6.33;;;;;;;;5021224;28;51139;-57
2023/06/25 04:47:21;;;;;;;;;6.67;6.67;;;;;;;;5031002;28;51126;-58
2023/06/25 04:49:46;;;;;;;;;6.00;6.00;;;;;;;;5031379;28;51088;-58
2023/06/25 04:52:18;;;;;;;;;8.67;8.67;;;;;;;;5027343;28;52040;-59
2023/06/25 04:54:43;;;;;;;;;5.67;5.33;;;;;;;;5015932;28;50886;-58
2023/06/25 04:57:09;;;;;;;;;9.33;9.00;;;;;;;;5028446;28;50997;-58
2023/06/25 04:59:35;;;;;;;;;7.00;6.67;;;;;;;;5029994;28;51181;-59
2023/06/25 05:02:00;;;;;;;;;6.33;6.00;;;;;;;;5029898;28;51072;-59
2023/06/25 05:04:25;;;;;;;;;7.67;7.00;;;;;;;;5014799;28;51096;-62
2023/06/25 05:06:51;;;;;;;;;9.00;8.00;;;;;;;;5021536;28;51255;-59
2023/06/25 05:09:16;;;;;;;;;8.33;8.33;;;;;;;;5020929;28;51080;-57
2023/06/25 05:11:41;;;;;;;;;7.00;7.00;;;;;;;;5016403;28;51217;-57
2023/06/25 05:14:06;;;;;;;;;7.67;7.00;;;;;;;;5021697;28;51225;-59
2023/06/25 05:16:31;;;;;;;;;8.00;8.00;;;;;;;;5016158;28;51107;-57
2023/06/25 05:18:56;;;;;;;;;7.50;7.50;;;;;;;;5025802;28;51272;-59
2023/06/25 05:21:22;;;;;;;;;8.67;8.33;;;;;;;;5024024;28;51102;-58
2023/06/25 05:23:57;;;;;;;;;7.67;7.67;;;;;;;;5032838;28;51179;-58
2023/06/25 05:26:22;;;;;;;;;7.00;6.00;;;;;;;;5026518;28;50887;-58
2023/06/25 05:28:47;;;;;;;;;7.00;7.00;;;;;;;;5026776;28;51140;-58
2023/06/25 05:31:12;;;;;;;;;8.33;7.67;;;;;;;;5023339;28;51999;-58
2023/06/25 05:33:37;;;;;;;;;6.67;6.00;;;;;;;;5024470;28;51423;-57
2023/06/25 05:36:03;;;;;;;;;7.00;7.00;;;;;;;;5015776;28;51100;-57
2023/06/25 05:38:28;;;;;;;;;6.33;6.00;;;;;;;;5026942;28;51224;-58
2023/06/25 05:40:53;;;;;;;;;5.00;5.00;;;;;;;;5022170;28;52001;-58
2023/06/25 05:43:18;;;;;;;;;9.33;9.00;;;;;;;;5028751;28;51080;-58
2023/06/25 05:45:44;;;;;;;;;7.00;6.33;;;;;;;;5012088;28;51193;-58
2023/06/25 05:48:09;;;;;;;;;8.00;8.00;;;;;;;;5021080;28;51124;-58
2023/06/25 05:50:34;;;;;;;;;9.00;9.00;;;;;;;;5015993;28;51824;-58
2023/06/25 05:52:59;;;;;;;;;9.00;8.00;;;;;;;;5029514;28;51441;-58
2023/06/25 05:55:24;;;;;;;;;8.00;8.00;;;;;;;;5030081;28;51240;-58
2023/06/25 05:57:50;;;;;;;;;9.00;8.00;;;;;;;;5029034;28;51076;-58
2023/06/25 06:00:15;;;;;;;;;7.00;7.00;;;;;;;;5024290;28;51930;-58
2023/06/25 06:02:40;;;;;;;;;9.67;9.33;;;;;;;;5017240;28;51031;-59
2023/06/25 06:05:06;;;;;;;;;8.33;8.33;;;;;;;;5023233;28;51107;-58
2023/06/25 06:07:31;;;;;;;;;7.67;7.33;;;;;;;;5030201;28;51538;-58
2023/06/25 06:09:58;;;;;;;;;8.33;7.33;;;;;;;;5030254;28;51823;-58
2023/06/25 06:12:23;;;;;;;;;8.67;8.00;;;;;;;;5025541;28;51247;-58
2023/06/25 06:14:48;;;;;;;;;8.67;8.00;;;;;;;;5026348;28;51263;-57
2023/06/25 06:17:13;;;;;;;;;8.33;8.00;;;;;;;;5018926;28;51337;-58
2023/06/25 06:19:39;;;;;;;;;8.00;8.00;;;;;;;;5026996;28;52722;-59
2023/06/25 06:22:04;;;;;;;;;8.67;8.00;;;;;;;;5018016;28;51211;-59
2023/06/25 06:24:29;;;;;;;;;9.33;9.33;;;;;;;;5010874;28;52963;-60
2023/06/25 06:26:54;;;;;;;;;8.33;7.67;;;;;;;;5011906;28;51817;-58
2023/06/25 06:29:20;;;;;;;;;10.00;9.67;;;;;;;;5017207;28;51814;-59
2023/06/25 06:31:45;;;;;;;;;9.33;9.33;;;;;;;;5016706;28;52966;-59
2023/06/25 06:34:10;;;;;;;;;9.67;9.67;;;;;;;;5017585;28;51166;-58
2023/06/25 06:36:35;;;;;;;;;9.00;9.00;;;;;;;;5019861;28;51155;-58
2023/06/25 06:39:01;;;;;;;;;8.00;8.00;;;;;;;;5031962;28;52893;-58
2023/06/25 06:41:26;;;;;;;;;8.00;8.00;;;;;;;;5020643;28;51125;-58
2023/06/25 06:43:51;;;;;;;;;9.00;9.00;;;;;;;;5021383;28;51143;-58
2023/06/25 06:46:16;;;;;;;;;8.67;8.33;;;;;;;;5017446;28;51288;-58
2023/06/25 06:48:43;;;;;;;;;9.00;9.00;;;;;;;;5027192;28;51805;-58
2023/06/25 06:51:08;;;;;;;;;10.00;9.00;;;;;;;;5027110;28;51137;-58
2023/06/25 06:53:33;;;;;;;;;9.33;9.33;;;;;;;;5028922;28;51065;-58
2023/06/25 06:55:58;;;;;;;;;9.33;8.67;;;;;;;;5014271;28;50948;-58
2023/06/25 06:58:23;;;;;;;;;9.00;9.00;;;;;;;;5030918;28;52406;-57
2023/06/25 07:00:49;;;;;;;;;11.67;11.33;;;;;;;;5017987;28;51047;-57
2023/06/25 07:03:14;;;;;;;;;10.00;10.00;;;;;;;;5033774;28;51146;-58
2023/06/25 07:05:39;;;;;;;;;11.00;10.33;;;;;;;;5027547;28;51080;-58
2023/06/25 07:08:05;;;;;;;;;11.00;11.00;;;;;;;;5034374;28;53722;-57
2023/06/25 07:10:30;;;;;;;;;9.67;9.00;;;;;;;;5034872;28;50910;-58
2023/06/25 07:12:55;;;;;;;;;9.00;9.00;;;;;;;;5015152;28;51733;-57
2023/06/25 07:15:21;;;;;;;;;10.00;10.00;;;;;;;;5025843;28;51118;-56
2023/06/25 07:17:46;;;;;;;;;12.00;11.00;;;;;;;;5031027;28;51902;-56
2023/06/25 07:20:11;;;;;;;;;10.00;9.67;;;;;;;;5020470;28;51147;-55
2023/06/25 07:22:39;;;;;;;;;9.67;9.67;;;;;;;;5032028;28;51043;-56
2023/06/25 07:25:05;;;;;;;;;10.00;10.00;;;;;;;;5024575;28;51104;-57
2023/06/25 07:27:30;;;;;;;;;10.33;10.33;;;;;;;;5021475;28;51731;-57
2023/06/25 07:29:55;;;;;;;;;8.33;8.33;;;;;;;;5034103;28;51024;-59
2023/06/25 07:32:20;;;;;;;;;12.33;10.00;;;;;;;;5033872;28;50974;-58
2023/06/25 07:34:45;;;;;;;;;10.33;9.33;;;;;;;;5032029;28;51337;-58
2023/06/25 07:37:11;;;;;;;;;11.50;11.50;;;;;;;;5023639;28;51756;-58
2023/06/25 07:39:36;;;;;;;;;12.50;12.50;;;;;;;;5034546;28;50990;-58
2023/06/25 07:42:01;;;;;;;;;10.75;10.75;;;;;;;;5033365;28;50932;-58
2023/06/25 07:44:26;;;;;;;;;9.00;9.00;;;;;;;;5032021;28;51472;-58
2023/06/25 07:46:52;;;;;;;;;8.25;8.00;;;;;;;;5023762;28;51217;-57
2023/06/25 07:49:17;;;;;;;;;11.00;11.00;;;;;;;;5023607;28;51704;-57
2023/06/25 07:51:44;;;;;;;;;10.25;10.25;;;;;;;;5023166;28;51271;-55
2023/06/25 07:54:09;;;;;;;;;8.67;8.33;;;;;;;;5033300;28;51126;-56
2023/06/25 07:56:34;;;;;;;;;10.00;10.00;;;;;;;;5021007;28;51001;-57
2023/06/25 07:58:59;;;;;;;;;9.67;9.67;;;;;;;;5021537;28;50871;-56
2023/06/25 08:01:25;;;;;;;;;10.00;10.00;;;;;;;;5026181;28;51685;-61
2023/06/25 08:03:50;;;;;;;;;11.00;11.00;;;;;;;;5017639;28;51217;-59
2023/06/25 08:06:15;;;;;;;;;11.75;11.25;;;;;;;;5028580;28;51937;-59
2023/06/25 08:08:40;;;;;;;;;9.00;9.00;;;;;;;;5030095;28;51761;-59
2023/06/25 08:11:05;;;;;;;;;9.50;9.50;;;;;;;;5026061;28;51238;-59
2023/06/25 08:13:31;;;;;;;;;12.00;12.00;;;;;;;;5031086;28;51430;-58
2023/06/25 08:15:56;;;;;;;;;11.25;11.25;;;;;;;;5023430;28;51027;-58
2023/06/25 08:18:21;;;;;;;;;12.75;11.50;;;;;;;;5032688;28;51004;-57
2023/06/25 08:20:46;;;;;;;;;11.00;11.00;;;;;;;;5024240;28;50851;-62
2023/06/25 08:23:12;;;;;;;;;10.25;9.25;;;;;;;;5031697;28;51253;-65
2023/06/25 08:25:37;;;;;;;;;10.25;9.50;;;;;;;;5025599;28;51936;-57
2023/06/25 08:28:02;;;;;;;;;10.25;10.25;;;;;;;;5030481;28;51099;-57
2023/06/25 08:30:27;;;;;;;;;10.75;10.75;;;;;;;;5024677;28;51145;-58
2023/06/25 08:32:53;;;;;;;;;12.00;12.00;;;;;;;;5027654;28;51152;-57
2023/06/25 08:35:18;;;;;;;;;11.50;11.50;;;;;;;;5015163;28;51689;-57
2023/06/25 08:37:43;;;;;;;;;13.00;13.00;;;;;;;;5017367;28;51135;-58
2023/06/25 08:40:12;;;;;;;;;11.25;11.25;;;;;;;;5029423;28;51328;-56
2023/06/25 08:42:38;;;;;;;;;12.00;11.50;;;;;;;;5028324;28;51115;-58
2023/06/25 08:45:03;;;;;;;;;13.00;13.00;;;;;;;;5020517;28;51096;-57
2023/06/25 08:47:32;;;;;;;;;12.00;12.00;;;;;;;;5013328;28;51164;-56
2023/06/25 08:49:58;;;;;;;;;13.75;13.75;;;;;;;;5027203;28;51141;-58
2023/06/25 08:52:24;;;;;;;;;13.00;13.00;;;;;;;;5024836;28;51154;-58
2023/06/25 08:54:50;;;;;;;;;12.75;12.00;;;;;;;;5020077;28;52037;-57
2023/06/25 08:57:16;;;;;;;;;13.00;12.75;;;;;;;;5028303;28;51064;-57
2023/06/25 08:59:41;;;;;;;;;10.75;10.75;;;;;;;;5021685;28;51004;-57
2023/06/25 09:02:06;;;;;;;;;12.00;12.00;;;;;;;;5017156;28;51255;-57
2023/06/25 09:04:31;;;;;;;;;11.25;11.25;;;;;;;;5019610;28;51794;-58
2023/06/25 09:07:04;;;;;;;;;12.25;12.25;;;;;;;;5029615;28;51183;-58
2023/06/25 09:09:29;;;;;;;;;12.00;12.00;;;;;;;;5023202;28;51218;-58
2023/06/25 09:11:54;;;;;;;;;12.75;12.75;;;;;;;;5017688;28;53013;-57
2023/06/25 09:14:20;;;;;;;;;12.75;12.75;;;;;;;;5025764;28;51108;-58
2023/06/25 09:16:48;;;;;;;;;12.25;12.25;;;;;;;;5028024;28;51058;-57
2023/06/25 09:19:17;;;;;;;;;14.50;14.50;;;;;;;;5016174;28;51130;-58
2023/06/25 09:21:43;;;;;;;;;12.50;12.50;;;;;;;;5013086;28;51331;-57
2023/06/25 09:24:15;;;;;;;;;11.75;11.75;;;;;;;;5012754;28;51012;-57
2023/06/25 09:26:58;;;;;;;;;12.25;12.25;;;;;;;;5022785;28;50867;-58
2023/06/25 09:29:24;;;;;;;;;15.00;14.25;;;;;;;;5025579;28;51120;-58
2023/06/25 09:31:49;;;;;;;;;16.00;15.00;;;;;;;;5012780;28;51048;-57
2023/06/25 09:34:15;;;;;;;;;17.00;16.25;;;;;;;;5012424;28;51723;-58
2023/06/25 09:36:41;;;;;;;;;13.50;12.75;;;;;;;;5012193;28;51022;-57
2023/06/25 09:39:07;;;;;;;;;12.00;11.75;;;;;;;;5013029;28;50784;-57
2023/06/25 09:41:33;;;;;;;;;15.00;14.75;;;;;;;;5013206;28;51391;-57
2023/06/25 09:44:00;;;;;;;;;12.75;12.25;;;;;;;;5023443;28;52795;-57
2023/06/25 09:46:26;;;;;;;;;11.75;11.25;;;;;;;;5012596;28;50977;-58
2023/06/25 09:48:56;;;;;;;;;19.25;17.25;;;;;;;;5017181;28;51370;-58
2023/06/25 09:51:25;;;;;;;;;13.75;13.00;;;;;;;;5011702;28;50898;-58
2023/06/25 09:53:52;;;;;;;;;13.00;13.00;;;;;;;;5012556;28;51977;-58
2023/06/25 09:56:20;;;;;;;;;13.75;13.25;;;;;;;;5011394;28;51160;-58
2023/06/25 09:58:45;;;;;;;;;13.75;13.75;;;;;;;;5012580;28;51033;-58
2023/06/25 10:01:10;;;;;;;;;11.25;11.25;;;;;;;;5016995;28;50791;-58
2023/06/25 10:03:36;;;;;;;;;13.25;13.25;;;;;;;;5026401;28;50966;-58
2023/06/25 10:06:02;;;;;;;;;15.00;15.00;;;;;;;;5030908;28;50979;-58
2023/06/25 10:08:27;;;;;;;;;11.50;11.50;;;;;;;;5032622;28;50982;-58
2023/06/25 10:10:57;;;;;;;;;12.00;12.00;;;;;;;;5032234;28;50984;-57
2023/06/25 10:13:22;;;;;;;;;12.00;12.00;;;;;;;;5012691;28;51754;-57
2023/06/25 10:15:55;;;;;;;;;12.00;12.00;;;;;;;;5014046;28;51048;-58
2023/06/25 10:18:22;;;;;;;;;15.25;14.50;;;;;;;;5021361;28;51124;-57
2023/06/25 10:20:47;;;;;;;;;15.25;15.25;;;;;;;;5014674;28;50946;-58
2023/06/25 10:23:13;;;;;;;;;14.00;12.50;;;;;;;;5021974;28;51149;-58
2023/06/25 10:25:39;;;;;;;;;13.00;13.00;;;;;;;;5013246;28;51121;-58
2023/06/25 10:28:08;;;;;;;;;12.25;12.25;;;;;;;;5032234;28;50844;-57
2023/06/25 10:31:00;;;;;;;;;13.00;12.25;;;;;;;;5031869;28;51219;-58
2023/06/25 10:33:28;;;;;;;;;13.25;12.75;;;;;;;;5018278;28;51790;-57
2023/06/25 10:35:54;;;;;;;;;13.75;13.75;;;;;;;;5021157;28;51155;-57
2023/06/25 10:38:20;;;;;;;;;14.00;14.00;;;;;;;;5015739;28;51303;-58
2023/06/25 10:40:45;;;;;;;;;14.75;13.75;;;;;;;;5012292;28;51058;-57
2023/06/25 10:43:15;;;;;;;;;11.00;11.00;;;;;;;;5011543;28;51272;-57
2023/06/25 10:45:47;;;;;;;;;12.25;12.25;;;;;;;;5020654;28;50921;-57
2023/06/25 10:48:12;;;;;;;;;11.50;11.50;;;;;;;;5024349;28;51242;-57
2023/06/25 10:50:37;;;;;;;;;11.75;11.75;;;;;;;;5029682;28;51458;-57
2023/06/25 10:53:04;;;;;;;;;11.50;11.50;;;;;;;;5021425;28;52587;-57
2023/06/25 10:55:29;;;;;;;;;18.00;17.25;;;;;;;;5027105;28;51174;-57
2023/06/25 10:57:56;;;;;;;;;17.50;17.00;;;;;;;;5025341;28;51206;-57
2023/06/25 11:00:22;;;;;;;;;17.00;16.25;;;;;;;;5028081;28;50992;-57
2023/06/25 11:02:54;;;;;;;;;14.00;14.00;;;;;;;;5028215;28;54583;-54
2023/06/25 11:05:21;;;;;;;;;12.25;12.00;;;;;;;;5029191;28;51131;-55
2023/06/25 11:07:51;;;;;;;;;11.75;11.75;;;;;;;;5012194;28;51218;-53
2023/06/25 11:10:17;;;;;;;;;12.75;12.50;;;;;;;;5013622;28;51538;-54
2023/06/25 11:12:42;;;;;;;;;16.25;16.25;;;;;;;;5013970;28;51722;-52
2023/06/25 11:15:08;;;;;;;;;11.50;11.50;;;;;;;;5023335;28;51299;-53
2023/06/25 11:17:33;;;;;;;;;12.75;12.25;;;;;;;;5021943;28;51255;-54
2023/06/25 11:19:58;;;;;;;;;12.75;12.75;;;;;;;;5030724;28;51326;-51
2023/06/25 11:22:26;;;;;;;;;11.25;10.75;;;;;;;;5031380;28;51296;-54
2023/06/25 11:24:51;;;;;;;;;13.00;13.00;;;;;;;;5016115;28;51043;-55
2023/06/25 11:27:23;;;;;;;;;13.00;12.00;;;;;;;;5015110;28;50974;-53
2023/06/25 11:29:48;;;;;;;;;12.25;11.50;;;;;;;;5011405;28;51076;-54
2023/06/25 11:32:20;;;;;;;;;12.75;12.00;;;;;;;;5015758;28;51969;-54
2023/06/25 11:34:45;;;;;;;;;12.75;12.75;;;;;;;;5030897;28;51065;-54
2023/06/25 11:37:11;;;;;;;;;11.75;11.75;;;;;;;;5025805;28;51119;-53
2023/06/25 11:39:43;;;;;;;;;14.25;14.25;;;;;;;;5011314;28;51283;-54
2023/06/25 11:42:12;;;;;;;;;13.00;12.50;;;;;;;;5011444;28;51079;-54
2023/06/25 11:44:37;;;;;;;;;12.50;12.00;;;;;;;;5012433;28;51125;-55
2023/06/25 11:47:02;;;;;;;;;14.75;14.75;;;;;;;;5017194;28;51308;-51
2023/06/25 11:49:27;;;;;;;;;11.25;11.25;;;;;;;;5014033;28;51003;-55
2023/06/25 11:51:53;;;;;;;;;14.75;14.50;;;;;;;;5014209;28;52792;-54
2023/06/25 11:54:18;;;;;;;;;12.75;12.75;;;;;;;;5018337;28;51007;-52
2023/06/25 11:56:43;;;;;;;;;10.75;10.75;;;;;;;;5034566;28;51040;-54
2023/06/25 11:59:08;;;;;;;;;10.25;10.25;;;;;;;;5022534;28;50984;-53
2023/06/25 12:01:33;;;;;;;;;11.00;11.00;;;;;;;;5021431;28;51150;-54
2023/06/25 12:03:59;;;;;;;;;11.50;10.50;;;;;;;;5018644;28;51046;-54
2023/06/25 12:06:25;;;;;;;;;15.00;13.00;;;;;;;;5014420;28;51075;-53
2023/06/25 12:08:50;;;;;;;;;14.75;13.50;;;;;;;;5023030;28;51333;-54
2023/06/25 12:11:16;;;;;;;;;13.25;13.00;;;;;;;;5031289;28;52505;-53
2023/06/25 12:13:41;;;;;;;;;10.50;10.50;;;;;;;;5033965;28;50831;-54
2023/06/25 12:16:06;;;;;;;;;12.25;12.25;;;;;;;;5014035;28;51239;-53
2023/06/25 12:18:31;;;;;;;;;13.75;13.00;;;;;;;;5017107;28;51280;-55
2023/06/25 12:20:56;;;;;;;;;15.00;15.00;;;;;;;;5031617;28;52909;-54
2023/06/25 12:23:22;;;;;;;;;13.75;13.75;;;;;;;;5014211;28;50986;-54
2023/06/25 12:25:47;;;;;;;;;14.75;14.75;;;;;;;;5027222;28;51125;-55
2023/06/25 12:28:12;;;;;;;;;17.00;17.00;;;;;;;;5024989;28;51020;-54
2023/06/25 12:30:37;;;;;;;;;12.50;12.50;;;;;;;;5019273;28;51943;-54
2023/06/25 12:33:02;;;;;;;;;14.75;14.75;;;;;;;;5013178;28;50936;-53
2023/06/25 12:35:28;;;;;;;;;16.50;16.50;;;;;;;;5013170;28;51309;-53
2023/06/25 12:37:53;;;;;;;;;17.50;16.50;;;;;;;;5014032;28;51116;-54
2023/06/25 12:40:19;;;;;;;;;13.50;13.00;;;;;;;;5013572;28;51007;-52
2023/06/25 12:42:44;;;;;;;;;18.25;17.50;;;;;;;;5019335;28;51067;-53
2023/06/25 12:45:09;;;;;;;;;12.25;12.25;;;;;;;;5033568;28;51115;-53
2023/06/25 12:47:35;;;;;;;;;16.75;16.75;;;;;;;;5033403;28;50926;-52
2023/06/25 12:50:00;;;;;;;;;14.75;14.50;;;;;;;;5018470;28;52110;-54
2023/06/25 12:52:27;;;;;;;;;12.25;12.00;;;;;;;;5018230;28;51168;-54
2023/06/25 12:54:52;;;;;;;;;13.00;12.25;;;;;;;;5012995;28;50902;-53
2023/06/25 12:57:17;;;;;;;;;15.25;15.25;;;;;;;;5013078;28;50926;-55
2023/06/25 12:59:43;;;;;;;;;14.25;14.00;;;;;;;;5016500;28;54481;-54
2023/06/25 13:02:08;;;;;;;;;13.25;13.25;;;;;;;;5025364;28;50993;-54
2023/06/25 13:04:33;;;;;;;;;12.50;12.25;;;;;;;;5025287;28;51280;-54
2023/06/25 13:06:58;;;;;;;;;12.00;12.00;;;;;;;;5013404;28;51069;-54
2023/06/25 13:09:24;;;;;;;;;12.75;12.75;;;;;;;;5018883;28;51002;-53
2023/06/25 13:11:49;;;;;;;;;14.00;13.00;;;;;;;;5017692;28;50982;-52
2023/06/25 13:14:14;;;;;;;;;13.00;12.75;;;;;;;;5022961;28;51178;-54
2023/06/25 13:16:39;;;;;;;;;10.50;9.75;;;;;;;;5025726;28;51093;-55
2023/06/25 13:19:05;;;;;;;;;13.00;12.50;;;;;;;;5032975;28;50927;-54
2023/06/25 13:21:30;;;;;;;;;9.50;9.50;;;;;;;;5022388;28;51289;-54
2023/06/25 13:23:55;;;;;;;;;19.00;14.25;;;;;;;;5012855;28;50852;-54
2023/06/25 13:26:20;;;;;;;;;13.75;13.25;;;;;;;;5019633;28;50800;-53
2023/06/25 13:28:46;;;;;;;;;12.50;12.50;;;;;;;;5017156;28;51691;-54
2023/06/25 13:31:11;;;;;;;;;13.25;13.25;;;;;;;;5012676;28;50946;-54
2023/06/25 13:33:36;;;;;;;;;12.75;12.75;;;;;;;;5012904;28;51040;-55
2023/06/25 13:36:01;;;;;;;;;13.25;13.25;;;;;;;;5013167;28;51437;-55
2023/06/25 13:38:27;;;;;;;;;13.00;13.00;;;;;;;;5012701;28;51663;-52
2023/06/25 13:40:52;;;;;;;;;13.00;12.50;;;;;;;;5014525;28;50950;-54
2023/06/25 13:43:17;;;;;;;;;13.50;13.50;;;;;;;;5030819;28;50971;-54
2023/06/25 13:45:42;;;;;;;;;13.50;13.50;;;;;;;;5031620;28;50917;-56
2023/06/25 13:48:07;;;;;;;;;14.00;14.00;;;;;;;;5031488;28;51987;-54
2023/06/25 13:50:33;;;;;;;;;13.67;12.00;;;;;;;;5031001;28;50904;-53
2023/06/25 13:52:58;;;;;;;;;13.00;13.00;;;;;;;;5015316;28;50923;-53
2023/06/25 13:55:23;;;;;;;;;18.00;17.50;;;;;;;;5022901;28;51281;-53
2023/06/25 13:57:48;;;;;;;;;18.25;17.50;;;;;;;;5012327;28;51863;-54
2023/06/25 14:00:14;;;;;;;;;14.75;13.75;;;;;;;;5011073;28;51025;-56
2023/06/25 14:02:39;;;;;;;;;17.50;16.75;;;;;;;;5028110;28;51073;-54
2023/06/25 14:05:04;;;;;;;;;14.75;14.75;;;;;;;;5018614;28;51072;-54
2023/06/25 14:07:30;;;;;;;;;11.75;11.50;;;;;;;;5011145;28;52080;-53
2023/06/25 14:09:55;;;;;;;;;11.00;11.00;;;;;;;;5029165;28;51117;-53
2023/06/25 14:12:20;;;;;;;;;14.75;14.75;;;;;;;;5014044;28;51126;-54
2023/06/25 14:14:45;;;;;;;;;14.50;14.50;;;;;;;;5012391;28;51327;-53
2023/06/25 14:17:10;;;;;;;;;14.00;14.00;;;;;;;;5011962;28;51118;-55
2023/06/25 14:19:36;;;;;;;;;13.50;13.50;;;;;;;;5011830;28;51150;-54